Aviation Digital Data Service (ADDS)

Output produced by METARs form (1456 UTC 25 January 2020)
found at http://www.aviationweather.gov/metar/data/
 
Forecast for: RJSI (HANAMAKI AIRPORT, JP)
Text: TAF RJSI 251106Z 2512/2618 01005KT 9999 FEW020
Forecast period: 1200 UTC 25 January 2020 to 0300 UTC 26 January 2020
Forecast type: FROM: standard forecast or significant change
Winds: from the N (10 degrees) at 6 MPH (5 knots; 2.6 m/s)
Visibility: 6 or more miles 10+ km)
Ceiling: at least 12,000 feet AGL
Clouds: few clouds at 2000 feet AGL
Weather: no significant weather forecast for this period
Text: BECMG 2603/2606 20004KT
Forecast period: 0300 to 1200 UTC 26 January 2020
Forecast type: BECOMING: Conditions expected to become as follows by 0600 UTC 26 January 2020
Winds: from the SSW (200 degrees) at 5 MPH (4 knots; 2.1 m/s)
Visibility: 6 or more miles 10+ km)
Ceiling: at least 12,000 feet AGL
Clouds: few clouds at 2000 feet AGL
Weather: no significant weather forecast for this period
Text: BECMG 2612/2615 01005KT
Forecast period: 1200 to 1800 UTC 26 January 2020
Forecast type: BECOMING: Conditions expected to become as follows by 1500 UTC 26 January 2020
Winds: from the N (10 degrees) at 6 MPH (5 knots; 2.6 m/s)
Visibility: 6 or more miles 10+ km)
Ceiling: at least 12,000 feet AGL
Clouds: few clouds at 2000 feet AGL
Weather: no significant weather forecast for this period